createdAt,value
2023-04-21T03:46:55.389Z,100.00
2023-04-21T03:49:59.724Z,100.00
2023-04-21T03:53:02.566Z,100.00
2023-04-21T03:56:05.804Z,100.00
2023-04-21T03:59:08.455Z,100.00
2023-04-21T04:02:11.473Z,100.00
2023-04-21T04:05:14.659Z,100.00
2023-04-21T04:08:17.326Z,100.00
2023-04-21T04:11:20.581Z,100.00
2023-04-21T04:14:23.211Z,100.00
2023-04-21T04:17:26.380Z,100.00
2023-04-21T04:20:29.092Z,100.00
2023-04-21T04:23:31.997Z,100.00
2023-04-21T04:26:35.526Z,100.00
2023-04-21T04:29:38.473Z,100.00
2023-04-21T04:32:41.561Z,100.00
2023-04-21T04:35:44.606Z,100.00
2023-04-21T04:38:48.502Z,100.00
2023-04-21T04:41:52.648Z,100.00
2023-04-21T04:44:57.330Z,100.00
2023-04-21T04:48:04.066Z,100.00
2023-04-21T04:51:06.881Z,100.00
2023-04-21T04:54:09.756Z,100.00
2023-04-21T04:57:12.317Z,100.00
2023-04-21T05:00:15.889Z,100.00
2023-04-21T05:03:18.788Z,100.00
2023-04-21T05:06:22.081Z,100.00
2023-04-21T05:09:24.843Z,100.00
2023-04-21T05:12:27.808Z,100.00
2023-04-21T05:15:30.449Z,99.03
2023-04-21T05:18:33.420Z,98.82
2023-04-21T05:21:36.092Z,95.99
2023-04-21T05:24:41.752Z,94.30
2023-04-21T05:27:44.459Z,93.10
2023-04-21T05:30:47.374Z,91.72
2023-04-21T05:33:50.403Z,91.61
2023-04-21T05:36:53.315Z,88.20
2023-04-21T05:39:55.885Z,86.98
2023-04-21T05:42:58.730Z,85.58
2023-04-21T05:46:10.027Z,81.75
2023-04-21T05:49:13.171Z,78.45
2023-04-21T05:52:17.530Z,77.74
2023-04-21T05:55:20.493Z,76.20
2023-04-21T05:58:23.095Z,77.10
2023-04-21T06:01:26.108Z,75.78
2023-04-21T06:04:31.915Z,71.40
2023-04-21T06:07:37.277Z,67.06
2023-04-21T06:10:40.407Z,64.54
2023-04-21T06:13:43.641Z,62.91
2023-04-21T06:16:46.738Z,62.85
2023-04-21T06:19:53.382Z,61.32
2023-04-21T06:22:56.308Z,60.43
2023-04-21T06:26:06.814Z,58.04
2023-04-21T06:29:09.855Z,57.79
2023-04-21T06:32:13.235Z,56.02
2023-04-21T06:35:17.341Z,56.73
2023-04-21T06:38:20.681Z,55.10
2023-04-21T06:41:24.893Z,54.34
2023-04-21T06:44:27.855Z,55.24
2023-04-21T06:47:30.690Z,54.20
2023-04-21T06:50:33.463Z,52.57
2023-04-21T06:53:37.519Z,53.05
2023-04-21T06:56:41.474Z,52.37
2023-04-21T06:59:45.001Z,51.54
2023-04-21T07:02:47.686Z,52.20
2023-04-21T07:05:50.949Z,51.47
2023-04-21T07:08:53.499Z,51.54
2023-04-21T07:11:56.324Z,50.98
2023-04-21T07:14:58.915Z,50.88
2023-04-21T07:18:01.972Z,50.27
2023-04-21T07:21:04.534Z,49.94
2023-04-21T07:24:07.644Z,49.67
2023-04-21T07:27:10.210Z,49.87
2023-04-21T07:30:13.286Z,50.16
2023-04-21T07:33:16.303Z,49.57
2023-04-21T07:36:19.517Z,49.32
2023-04-21T07:39:22.772Z,48.71
2023-04-21T07:42:26.994Z,50.06
2023-04-21T07:45:29.711Z,48.54
2023-04-21T07:48:33.398Z,48.04
2023-04-21T07:51:36.172Z,47.41
2023-04-21T07:54:39.212Z,46.21
2023-04-21T07:57:41.932Z,46.30
2023-04-21T08:00:44.933Z,45.25
2023-04-21T08:03:47.898Z,45.50
2023-04-21T08:06:50.628Z,45.89
2023-04-21T08:09:53.733Z,45.43
2023-04-21T08:12:56.400Z,43.77
2023-04-21T08:15:59.373Z,43.41
2023-04-21T08:19:02.798Z,44.68
2023-04-21T08:22:05.668Z,43.61
2023-04-21T08:25:08.653Z,42.35
2023-04-21T08:28:11.585Z,41.58
2023-04-21T08:31:14.349Z,42.68
2023-04-21T08:34:27.426Z,42.76
2023-04-21T08:37:30.697Z,42.15
2023-04-21T08:40:35.875Z,42.75
2023-04-21T08:43:38.453Z,41.71
2023-04-21T08:46:42.199Z,41.14
2023-04-21T08:49:45.454Z,40.64
2023-04-21T08:52:48.743Z,41.47
2023-04-21T08:56:07.518Z,40.76
2023-04-21T08:59:13.490Z,39.65
2023-04-21T09:02:18.051Z,39.27
2023-04-21T09:05:26.318Z,39.76
2023-04-21T09:08:30.481Z,37.06
2023-04-21T09:11:34.587Z,38.93
2023-04-21T09:14:37.298Z,39.39
2023-04-21T09:17:40.054Z,38.69
2023-04-21T09:20:44.336Z,38.28
2023-04-21T09:23:52.445Z,37.53
2023-04-21T09:26:55.047Z,36.68
2023-04-21T09:30:02.530Z,36.40
2023-04-21T09:33:13.401Z,36.96
2023-04-21T09:36:26.160Z,39.11
2023-04-21T09:39:43.264Z,37.33
2023-04-21T09:42:52.430Z,37.19
2023-04-21T09:45:56.317Z,38.56
2023-04-21T09:49:03.646Z,39.03
2023-04-21T09:52:18.546Z,39.09
2023-04-21T09:55:29.518Z,39.10
2023-04-21T09:58:37.946Z,38.41
2023-04-21T10:01:41.000Z,37.88
2023-04-21T10:04:48.056Z,37.30
2023-04-21T10:07:50.809Z,37.85
2023-04-21T10:10:54.512Z,37.81
2023-04-21T10:13:57.592Z,38.41
2023-04-21T10:17:06.842Z,36.54
2023-04-21T10:20:10.116Z,37.00
2023-04-21T10:23:26.978Z,37.38
2023-04-21T10:26:36.249Z,37.75
2023-04-21T10:29:52.281Z,37.85
2023-04-21T10:33:06.529Z,37.08
2023-04-21T10:36:12.462Z,35.90
2023-04-21T10:39:41.565Z,36.53
2023-04-21T10:42:44.562Z,36.57
2023-04-21T10:45:47.107Z,36.92
2023-04-21T10:48:53.522Z,36.82
2023-04-21T10:51:59.350Z,37.05
2023-04-21T10:55:02.093Z,36.57
2023-04-21T10:58:11.679Z,37.19
2023-04-21T11:01:14.714Z,36.80
2023-04-21T11:04:19.604Z,36.31
2023-04-21T11:07:23.760Z,34.59
2023-04-21T11:10:26.527Z,35.08
2023-04-21T11:13:33.705Z,33.52
2023-04-21T11:16:37.884Z,34.28
2023-04-21T11:19:41.440Z,35.95
2023-04-21T11:22:43.999Z,34.23
2023-04-21T11:25:49.523Z,32.84
2023-04-21T11:28:53.667Z,34.10
2023-04-21T11:31:56.443Z,34.96
2023-04-21T11:34:59.022Z,34.28
2023-04-21T11:38:08.004Z,35.48
2023-04-21T11:41:11.179Z,36.53
2023-04-21T11:44:30.203Z,37.61
2023-04-21T11:47:33.216Z,36.89
2023-04-21T11:50:38.895Z,36.23
2023-04-21T11:53:41.844Z,34.25
2023-04-21T11:56:48.442Z,35.18
2023-04-21T11:59:51.783Z,34.80
2023-04-21T12:02:57.919Z,34.47
2023-04-21T12:06:01.016Z,33.41
2023-04-21T12:09:04.123Z,30.89
2023-04-21T12:12:08.349Z,31.41
2023-04-21T12:15:12.874Z,33.86
2023-04-21T12:18:15.964Z,30.29
2023-04-21T12:21:28.351Z,29.63
2023-04-21T12:24:36.891Z,32.77
2023-04-21T12:27:59.197Z,31.87
2023-04-21T12:31:02.237Z,33.63
2023-04-21T12:34:04.955Z,34.64
2023-04-21T12:37:07.948Z,33.95
2023-04-21T12:40:10.676Z,33.53
2023-04-21T12:43:13.590Z,35.39
2023-04-21T12:46:16.952Z,35.37
2023-04-21T12:49:20.458Z,35.37
2023-04-21T12:52:23.113Z,37.07
2023-04-21T12:55:26.088Z,35.54
2023-04-21T12:58:28.924Z,36.41
2023-04-21T13:01:31.887Z,36.42
2023-04-21T13:04:35.880Z,37.47
2023-04-21T13:07:39.309Z,35.83
2023-04-21T13:10:42.260Z,35.92
2023-04-21T13:13:45.158Z,35.57
2023-04-21T13:16:47.815Z,34.90
2023-04-21T13:19:51.123Z,34.71
2023-04-21T13:22:53.779Z,35.57
2023-04-21T13:25:56.902Z,35.41
2023-04-21T13:28:59.371Z,36.29
2023-04-21T13:32:03.931Z,36.53
2023-04-21T13:35:09.424Z,37.39
2023-04-21T13:38:12.662Z,37.55
2023-04-21T13:41:15.549Z,34.82
2023-04-21T13:44:19.477Z,35.51
2023-04-21T13:47:22.186Z,36.16
2023-04-21T13:50:25.334Z,35.79
2023-04-21T13:53:27.817Z,34.79
2023-04-21T13:56:31.370Z,33.25
2023-04-21T13:59:34.200Z,33.51
2023-04-21T14:02:38.265Z,35.00
2023-04-21T14:05:41.536Z,33.17
2023-04-21T14:08:44.452Z,32.10
2023-04-21T14:11:47.679Z,33.50
2023-04-21T14:14:50.199Z,33.11
2023-04-21T14:17:53.639Z,30.23
2023-04-21T14:20:56.612Z,28.25
2023-04-21T14:23:59.614Z,27.62
2023-04-21T14:27:02.192Z,28.62
2023-04-21T14:30:09.060Z,29.86
2023-04-21T14:33:12.170Z,29.89
2023-04-21T14:36:15.099Z,30.16
2023-04-21T14:39:17.824Z,29.97
2023-04-21T14:42:20.745Z,30.39
2023-04-21T14:48:26.824Z,33.23
2023-04-21T14:51:30.036Z,33.07
2023-04-21T14:54:32.986Z,30.87
2023-04-21T14:57:35.661Z,31.80
2023-04-21T15:00:39.078Z,30.95
2023-04-21T15:03:42.173Z,35.22
2023-04-21T15:06:45.600Z,32.95
2023-04-21T15:09:48.660Z,33.47
2023-04-21T15:12:51.649Z,31.13
2023-04-21T15:15:54.254Z,27.49
2023-04-21T15:18:57.084Z,28.31
2023-04-21T15:22:00.141Z,27.92
2023-04-21T15:25:03.372Z,22.96
2023-04-21T15:28:07.354Z,19.93
2023-04-21T15:31:10.704Z,17.06
